sensor_id;sensor_type;location;lat;lon;timestamp;pressure;altitude;pressure_sealevel;temperature;humidity
54850;BME280;47660;51.334;12.396;2023-03-17T00:01:14;100258.91;;;11.69;43.22
54850;BME280;47660;51.334;12.396;2023-03-17T00:03:44;100257.28;;;11.93;43.38
54850;BME280;47660;51.334;12.396;2023-03-17T00:06:42;100253.66;;;12.07;42.58
54850;BME280;47660;51.334;12.396;2023-03-17T00:09:12;100256.00;;;12.24;42.35
54850;BME280;47660;51.334;12.396;2023-03-17T00:11:41;100249.50;;;11.89;43.07
54850;BME280;47660;51.334;12.396;2023-03-17T00:14:07;100259.34;;;11.63;43.10
54850;BME280;47660;51.334;12.396;2023-03-17T00:16:36;100246.97;;;12.01;42.67
54850;BME280;47660;51.334;12.396;2023-03-17T00:19:02;100250.16;;;11.93;42.28
54850;BME280;47660;51.334;12.396;2023-03-17T00:21:30;100247.94;;;12.74;41.13
54850;BME280;47660;51.334;12.396;2023-03-17T00:23:57;100253.25;;;12.13;41.36
54850;BME280;47660;51.334;12.396;2023-03-17T00:26:24;100252.19;;;11.77;42.14
54850;BME280;47660;51.334;12.396;2023-03-17T00:28:51;100249.97;;;11.96;42.45
54850;BME280;47660;51.334;12.396;2023-03-17T00:31:24;100240.03;;;12.11;41.93
54850;BME280;47660;51.334;12.396;2023-03-17T00:33:53;100240.47;;;11.92;42.67
54850;BME280;47660;51.334;12.396;2023-03-17T00:36:26;100234.22;;;12.30;41.82
54850;BME280;47660;51.334;12.396;2023-03-17T00:38:52;100223.94;;;12.13;42.91
54850;BME280;47660;51.334;12.396;2023-03-17T00:41:18;100218.28;;;12.17;42.05
54850;BME280;47660;51.334;12.396;2023-03-17T00:43:44;100208.06;;;12.11;42.73
54850;BME280;47660;51.334;12.396;2023-03-17T00:46:20;100212.53;;;11.98;42.68
54850;BME280;47660;51.334;12.396;2023-03-17T00:48:47;100196.09;;;12.17;42.16
54850;BME280;47660;51.334;12.396;2023-03-17T00:51:13;100196.56;;;12.35;41.52
54850;BME280;47660;51.334;12.396;2023-03-17T00:53:45;100192.47;;;12.18;41.95
54850;BME280;47660;51.334;12.396;2023-03-17T00:56:14;100180.63;;;12.22;41.34
54850;BME280;47660;51.334;12.396;2023-03-17T00:58:40;100174.03;;;12.28;41.45
54850;BME280;47660;51.334;12.396;2023-03-17T01:01:08;100174.44;;;12.70;40.55
54850;BME280;47660;51.334;12.396;2023-03-17T01:03:35;100172.25;;;12.40;40.37
54850;BME280;47660;51.334;12.396;2023-03-17T01:06:02;100164.88;;;12.19;40.34
54850;BME280;47660;51.334;12.396;2023-03-17T01:08:29;100159.00;;;12.62;40.70
54850;BME280;47660;51.334;12.396;2023-03-17T01:10:56;100153.16;;;12.57;40.85
54850;BME280;47660;51.334;12.396;2023-03-17T01:13:22;100162.94;;;12.21;39.96
54850;BME280;47660;51.334;12.396;2023-03-17T01:15:51;100156.81;;;12.56;39.88
54850;BME280;47660;51.334;12.396;2023-03-17T01:18:19;100158.28;;;12.60;40.30
54850;BME280;47660;51.334;12.396;2023-03-17T01:20:45;100157.78;;;12.31;39.66
54850;BME280;47660;51.334;12.396;2023-03-17T01:23:11;100162.25;;;12.06;40.41
54850;BME280;47660;51.334;12.396;2023-03-17T01:25:38;100148.88;;;12.43;39.27
54850;BME280;47660;51.334;12.396;2023-03-17T01:28:05;100153.31;;;12.91;38.37
54850;BME280;47660;51.334;12.396;2023-03-17T01:30:34;100150.88;;;12.53;40.92
54850;BME280;47660;51.334;12.396;2023-03-17T01:33:01;100151.59;;;12.06;39.37
54850;BME280;47660;51.334;12.396;2023-03-17T01:35:28;100154.75;;;11.74;39.90
54850;BME280;47660;51.334;12.396;2023-03-17T01:38:00;100149.78;;;12.31;39.07
54850;BME280;47660;51.334;12.396;2023-03-17T01:40:32;100143.75;;;12.65;38.71
54850;BME280;47660;51.334;12.396;2023-03-17T01:48:41;100129.91;;;12.48;39.10
54850;BME280;47660;51.334;12.396;2023-03-17T01:51:12;100129.97;;;11.61;39.84
54850;BME280;47660;51.334;12.396;2023-03-17T01:53:44;100122.41;;;12.04;39.56
54850;BME280;47660;51.334;12.396;2023-03-17T01:56:15;100120.81;;;12.02;39.38
54850;BME280;47660;51.334;12.396;2023-03-17T01:58:42;100110.94;;;11.91;39.61
54850;BME280;47660;51.334;12.396;2023-03-17T02:01:08;100106.66;;;11.88;39.52
54850;BME280;47660;51.334;12.396;2023-03-17T02:03:36;100108.50;;;11.88;39.38
54850;BME280;47660;51.334;12.396;2023-03-17T02:06:01;100108.97;;;11.69;40.00
54850;BME280;47660;51.334;12.396;2023-03-17T02:08:27;100109.50;;;11.74;39.98
54850;BME280;47660;51.334;12.396;2023-03-17T02:10:54;100100.19;;;11.42;40.49
54850;BME280;47660;51.334;12.396;2023-03-17T02:13:21;100103.41;;;11.48;40.54
54850;BME280;47660;51.334;12.396;2023-03-17T02:15:49;100104.66;;;11.42;40.98
54850;BME280;47660;51.334;12.396;2023-03-17T02:18:17;100114.34;;;10.65;42.30
54850;BME280;47660;51.334;12.396;2023-03-17T02:23:13;100112.34;;;11.84;40.77
54850;BME280;47660;51.334;12.396;2023-03-17T02:25:42;100102.63;;;11.58;40.51
54850;BME280;47660;51.334;12.396;2023-03-17T02:28:14;100104.09;;;12.00;40.30
54850;BME280;47660;51.334;12.396;2023-03-17T02:30:41;100108.63;;;11.73;40.33
54850;BME280;47660;51.334;12.396;2023-03-17T02:33:08;100107.69;;;10.98;41.68
54850;BME280;47660;51.334;12.396;2023-03-17T02:35:33;100103.91;;;11.40;40.60
54850;BME280;47660;51.334;12.396;2023-03-17T02:37:59;100098.31;;;11.06;41.10
54850;BME280;47660;51.334;12.396;2023-03-17T02:40:28;100102.41;;;11.62;40.35
54850;BME280;47660;51.334;12.396;2023-03-17T02:42:54;100096.34;;;11.59;40.65
54850;BME280;47660;51.334;12.396;2023-03-17T02:45:19;100099.91;;;11.34;40.73
54850;BME280;47660;51.334;12.396;2023-03-17T02:47:45;100101.19;;;11.03;41.19
54850;BME280;47660;51.334;12.396;2023-03-17T02:50:18;100111.34;;;11.61;40.21
54850;BME280;47660;51.334;12.396;2023-03-17T02:52:51;100111.69;;;11.56;40.22
54850;BME280;47660;51.334;12.396;2023-03-17T02:55:20;100113.03;;;11.62;40.06
54850;BME280;47660;51.334;12.396;2023-03-17T02:57:47;100112.91;;;12.13;39.18
54850;BME280;47660;51.334;12.396;2023-03-17T03:00:13;100120.09;;;11.87;39.75
54850;BME280;47660;51.334;12.396;2023-03-17T03:02:40;100121.44;;;12.30;39.67
54850;BME280;47660;51.334;12.396;2023-03-17T03:05:06;100122.59;;;11.64;39.98
54850;BME280;47660;51.334;12.396;2023-03-17T03:07:33;100127.56;;;11.44;39.86
54850;BME280;47660;51.334;12.396;2023-03-17T03:09:58;100119.03;;;12.02;39.38
54850;BME280;47660;51.334;12.396;2023-03-17T03:12:24;100116.88;;;11.95;39.47
54850;BME280;47660;51.334;12.396;2023-03-17T03:14:49;100112.75;;;12.28;39.02
54850;BME280;47660;51.334;12.396;2023-03-17T03:17:15;100108.16;;;12.41;38.50
54850;BME280;47660;51.334;12.396;2023-03-17T03:19:40;100114.66;;;12.61;38.36
54850;BME280;47660;51.334;12.396;2023-03-17T03:22:09;100105.84;;;12.72;38.12
54850;BME280;47660;51.334;12.396;2023-03-17T03:24:41;100103.03;;;12.27;39.53
54850;BME280;47660;51.334;12.396;2023-03-17T03:27:09;100107.25;;;12.54;38.59
54850;BME280;47660;51.334;12.396;2023-03-17T03:29:35;100107.56;;;12.38;38.47
54850;BME280;47660;51.334;12.396;2023-03-17T03:32:00;100112.53;;;11.56;39.70
54850;BME280;47660;51.334;12.396;2023-03-17T03:34:26;100105.28;;;11.58;39.56
54850;BME280;47660;51.334;12.396;2023-03-17T03:36:52;100103.91;;;11.53;39.64
54850;BME280;47660;51.334;12.396;2023-03-17T03:39:17;100099.13;;;11.45;39.50
54850;BME280;47660;51.334;12.396;2023-03-17T03:41:45;100103.56;;;11.07;40.11
54850;BME280;47660;51.334;12.396;2023-03-17T03:44:10;100095.50;;;11.46;39.19
54850;BME280;47660;51.334;12.396;2023-03-17T03:46:36;100104.50;;;11.19;39.50
54850;BME280;47660;51.334;12.396;2023-03-17T03:49:01;100107.03;;;11.21;39.43
54850;BME280;47660;51.334;12.396;2023-03-17T03:51:27;100094.75;;;11.44;38.93
54850;BME280;47660;51.334;12.396;2023-03-17T03:53:52;100099.47;;;11.14;39.18
54850;BME280;47660;51.334;12.396;2023-03-17T03:56:20;100088.59;;;11.43;38.83
54850;BME280;47660;51.334;12.396;2023-03-17T03:58:46;100085.78;;;11.58;38.42
54850;BME280;47660;51.334;12.396;2023-03-17T04:01:11;100093.19;;;11.15;38.30
54850;BME280;47660;51.334;12.396;2023-03-17T04:03:39;100084.47;;;11.26;38.69
54850;BME280;47660;51.334;12.396;2023-03-17T04:06:09;100064.72;;;11.55;38.57
54850;BME280;47660;51.334;12.396;2023-03-17T04:08:35;100072.91;;;11.65;37.55
54850;BME280;47660;51.334;12.396;2023-03-17T04:11:05;100069.31;;;12.14;37.12
54850;BME280;47660;51.334;12.396;2023-03-17T04:13:31;100067.88;;;11.73;36.93
54850;BME280;47660;51.334;12.396;2023-03-17T04:15:57;100056.16;;;12.00;36.72
54850;BME280;47660;51.334;12.396;2023-03-17T04:18:22;100044.69;;;12.46;36.03
54850;BME280;47660;51.334;12.396;2023-03-17T04:20:50;100039.88;;;12.52;36.46
54850;BME280;47660;51.334;12.396;2023-03-17T04:23:16;100038.75;;;12.54;36.80
54850;BME280;47660;51.334;12.396;2023-03-17T04:25:44;100045.69;;;12.57;35.83
54850;BME280;47660;51.334;12.396;2023-03-17T04:28:12;100043.38;;;12.41;35.86
54850;BME280;47660;51.334;12.396;2023-03-17T04:30:37;100047.13;;;12.50;35.58
54850;BME280;47660;51.334;12.396;2023-03-17T04:33:05;100056.06;;;11.64;36.40
54850;BME280;47660;51.334;12.396;2023-03-17T04:35:33;100061.06;;;11.93;36.75
54850;BME280;47660;51.334;12.396;2023-03-17T04:38:02;100051.91;;;12.33;36.11
54850;BME280;47660;51.334;12.396;2023-03-17T04:40:28;100059.22;;;11.69;36.37
54850;BME280;47660;51.334;12.396;2023-03-17T04:42:53;100055.06;;;11.41;36.57
54850;BME280;47660;51.334;12.396;2023-03-17T04:45:19;100052.94;;;11.95;36.24
54850;BME280;47660;51.334;12.396;2023-03-17T04:47:46;100050.28;;;11.70;35.99
54850;BME280;47660;51.334;12.396;2023-03-17T04:50:14;100051.31;;;12.29;35.51
54850;BME280;47660;51.334;12.396;2023-03-17T04:52:42;100053.22;;;12.63;35.52
54850;BME280;47660;51.334;12.396;2023-03-17T04:55:08;100064.91;;;12.38;35.62
54850;BME280;47660;51.334;12.396;2023-03-17T04:57:34;100064.84;;;12.62;35.97
54850;BME280;47660;51.334;12.396;2023-03-17T05:00:00;100066.00;;;12.93;34.65
54850;BME280;47660;51.334;12.396;2023-03-17T05:02:29;100072.66;;;12.88;34.50
54850;BME280;47660;51.334;12.396;2023-03-17T05:04:54;100081.56;;;12.53;34.45
54850;BME280;47660;51.334;12.396;2023-03-17T05:07:20;100076.63;;;12.24;36.48
54850;BME280;47660;51.334;12.396;2023-03-17T05:09:45;100073.22;;;12.22;36.62
54850;BME280;47660;51.334;12.396;2023-03-17T05:12:12;100061.31;;;12.61;35.84
54850;BME280;47660;51.334;12.396;2023-03-17T05:14:38;100068.19;;;11.93;37.54
54850;BME280;47660;51.334;12.396;2023-03-17T05:17:06;100057.63;;;12.04;38.15
54850;BME280;47660;51.334;12.396;2023-03-17T05:19:31;100055.75;;;11.93;37.83
54850;BME280;47660;51.334;12.396;2023-03-17T05:21:57;100045.13;;;11.80;37.68
54850;BME280;47660;51.334;12.396;2023-03-17T05:24:22;100045.59;;;11.74;38.20
54850;BME280;47660;51.334;12.396;2023-03-17T05:26:51;100062.41;;;11.74;37.78
54850;BME280;47660;51.334;12.396;2023-03-17T05:29:16;100068.38;;;11.78;37.90
54850;BME280;47660;51.334;12.396;2023-03-17T05:31:41;100071.13;;;11.52;39.05
54850;BME280;47660;51.334;12.396;2023-03-17T05:34:09;100070.69;;;11.83;38.81
54850;BME280;47660;51.334;12.396;2023-03-17T05:36:35;100075.88;;;12.22;37.88
54850;BME280;47660;51.334;12.396;2023-03-17T05:39:03;100071.75;;;11.80;38.72
54850;BME280;47660;51.334;12.396;2023-03-17T05:41:29;100068.75;;;11.61;38.87
54850;BME280;47660;51.334;12.396;2023-03-17T05:43:54;100073.38;;;11.46;39.53
54850;BME280;47660;51.334;12.396;2023-03-17T05:46:22;100077.06;;;11.80;38.71
54850;BME280;47660;51.334;12.396;2023-03-17T05:48:50;100077.09;;;11.56;39.47
54850;BME280;47660;51.334;12.396;2023-03-17T05:51:16;100077.09;;;11.56;40.39
54850;BME280;47660;51.334;12.396;2023-03-17T05:53:42;100077.03;;;11.69;39.66
54850;BME280;47660;51.334;12.396;2023-03-17T05:56:22;100069.38;;;11.88;39.22
54850;BME280;47660;51.334;12.396;2023-03-17T05:58:49;100058.44;;;11.56;39.33
54850;BME280;47660;51.334;12.396;2023-03-17T06:01:14;100058.09;;;11.61;39.36
54850;BME280;47660;51.334;12.396;2023-03-17T06:03:40;100047.69;;;11.57;39.20
54850;BME280;47660;51.334;12.396;2023-03-17T06:06:06;100048.59;;;11.69;39.20
54850;BME280;47660;51.334;12.396;2023-03-17T06:08:32;100059.44;;;11.79;39.90
54850;BME280;47660;51.334;12.396;2023-03-17T06:10:59;100060.66;;;12.35;38.12
54850;BME280;47660;51.334;12.396;2023-03-17T06:13:25;100056.25;;;11.98;38.42
54850;BME280;47660;51.334;12.396;2023-03-17T06:15:51;100062.94;;;12.28;37.94
54850;BME280;47660;51.334;12.396;2023-03-17T06:18:19;100059.09;;;12.32;37.91
54850;BME280;47660;51.334;12.396;2023-03-17T06:20:49;100055.63;;;12.19;37.85
54850;BME280;47660;51.334;12.396;2023-03-17T06:23:23;100052.72;;;12.58;36.71
54850;BME280;47660;51.334;12.396;2023-03-17T06:25:49;100049.28;;;12.09;37.63
54850;BME280;47660;51.334;12.396;2023-03-17T06:28:14;100041.75;;;11.78;37.80
54850;BME280;47660;51.334;12.396;2023-03-17T06:30:43;100033.47;;;11.94;38.04
54850;BME280;47660;51.334;12.396;2023-03-17T06:33:08;100031.34;;;11.99;37.98
54850;BME280;47660;51.334;12.396;2023-03-17T06:35:34;100033.53;;;12.06;38.04
54850;BME280;47660;51.334;12.396;2023-03-17T06:38:00;100049.13;;;12.23;38.40
54850;BME280;47660;51.334;12.396;2023-03-17T06:40:26;100037.09;;;11.93;37.84
54850;BME280;47660;51.334;12.396;2023-03-17T06:42:54;100020.63;;;11.88;38.03
54850;BME280;47660;51.334;12.396;2023-03-17T06:45:22;100016.88;;;11.29;38.25
54850;BME280;47660;51.334;12.396;2023-03-17T06:47:47;100018.03;;;11.75;38.48
54850;BME280;47660;51.334;12.396;2023-03-17T06:50:12;100016.03;;;11.90;37.61
54850;BME280;47660;51.334;12.396;2023-03-17T06:52:41;100016.56;;;11.58;37.96
54850;BME280;47660;51.334;12.396;2023-03-17T06:55:07;100015.00;;;12.04;37.24
54850;BME280;47660;51.334;12.396;2023-03-17T06:57:33;100008.31;;;11.50;38.31
54850;BME280;47660;51.334;12.396;2023-03-17T06:59:59;100006.63;;;12.33;37.00
54850;BME280;47660;51.334;12.396;2023-03-17T07:02:26;100023.09;;;12.27;37.08
54850;BME280;47660;51.334;12.396;2023-03-17T07:04:52;100009.47;;;12.07;37.27
54850;BME280;47660;51.334;12.396;2023-03-17T07:07:17;100013.66;;;12.34;36.96
54850;BME280;47660;51.334;12.396;2023-03-17T07:09:45;100018.38;;;12.30;37.03
54850;BME280;47660;51.334;12.396;2023-03-17T07:12:12;100022.84;;;12.30;37.24
54850;BME280;47660;51.334;12.396;2023-03-17T07:14:37;100032.91;;;12.26;37.12
54850;BME280;47660;51.334;12.396;2023-03-17T07:17:04;100035.00;;;12.45;37.67
54850;BME280;47660;51.334;12.396;2023-03-17T07:19:32;100039.50;;;12.45;37.53
54850;BME280;47660;51.334;12.396;2023-03-17T07:21:59;100041.13;;;13.04;36.96
54850;BME280;47660;51.334;12.396;2023-03-17T07:24:25;100044.78;;;13.03;37.22
54850;BME280;47660;51.334;12.396;2023-03-17T07:26:53;100049.13;;;12.82;37.21
54850;BME280;47660;51.334;12.396;2023-03-17T07:29:18;100041.13;;;13.27;36.72
54850;BME280;47660;51.334;12.396;2023-03-17T07:31:45;100036.97;;;13.69;36.40
54850;BME280;47660;51.334;12.396;2023-03-17T07:34:11;100037.59;;;13.04;36.38
54850;BME280;47660;51.334;12.396;2023-03-17T07:36:37;100030.06;;;13.99;35.90
54850;BME280;47660;51.334;12.396;2023-03-17T07:39:02;100028.19;;;14.32;34.67
54850;BME280;47660;51.334;12.396;2023-03-17T07:41:30;100023.34;;;14.04;34.69
54850;BME280;47660;51.334;12.396;2023-03-17T07:43:56;100011.38;;;14.41;33.80
54850;BME280;47660;51.334;12.396;2023-03-17T07:46:22;100015.19;;;14.17;34.30
54850;BME280;47660;51.334;12.396;2023-03-17T07:48:47;100007.41;;;13.49;33.18
54850;BME280;47660;51.334;12.396;2023-03-17T07:51:15;100003.09;;;13.69;31.91
54850;BME280;47660;51.334;12.396;2023-03-17T07:53:41;99997.53;;;13.93;32.02
54850;BME280;47660;51.334;12.396;2023-03-17T07:56:11;100009.72;;;13.42;31.77
54850;BME280;47660;51.334;12.396;2023-03-17T07:58:36;100004.69;;;12.24;32.88
54850;BME280;47660;51.334;12.396;2023-03-17T08:01:02;100006.44;;;12.59;32.81
54850;BME280;47660;51.334;12.396;2023-03-17T08:03:28;99993.44;;;14.53;31.74
54850;BME280;47660;51.334;12.396;2023-03-17T08:05:56;100007.16;;;13.29;31.66
54850;BME280;47660;51.334;12.396;2023-03-17T08:08:22;100002.06;;;13.49;31.84
54850;BME280;47660;51.334;12.396;2023-03-17T08:10:49;99991.47;;;14.55;30.95
54850;BME280;47660;51.334;12.396;2023-03-17T08:13:15;99990.53;;;13.48;31.89
54850;BME280;47660;51.334;12.396;2023-03-17T08:15:44;99994.31;;;14.32;30.81
54850;BME280;47660;51.334;12.396;2023-03-17T08:18:10;99985.53;;;15.74;29.54
54850;BME280;47660;51.334;12.396;2023-03-17T08:20:36;99985.78;;;15.41;30.78
54850;BME280;47660;51.334;12.396;2023-03-17T08:23:04;99982.72;;;15.66;30.44
54850;BME280;47660;51.334;12.396;2023-03-17T08:25:33;99985.41;;;16.05;29.45
54850;BME280;47660;51.334;12.396;2023-03-17T08:27:58;99985.34;;;15.36;29.95
54850;BME280;47660;51.334;12.396;2023-03-17T08:30:24;99987.75;;;14.98;29.88
54850;BME280;47660;51.334;12.396;2023-03-17T08:32:49;99989.06;;;15.55;29.85
54850;BME280;47660;51.334;12.396;2023-03-17T08:35:16;99985.47;;;16.53;28.89
54850;BME280;47660;51.334;12.396;2023-03-17T08:37:43;99988.75;;;16.46;29.01
54850;BME280;47660;51.334;12.396;2023-03-17T08:40:11;99991.25;;;17.05;29.08
54850;BME280;47660;51.334;12.396;2023-03-17T08:42:41;99998.75;;;15.46;30.15
54850;BME280;47660;51.334;12.396;2023-03-17T08:45:07;99997.41;;;15.81;30.33
54850;BME280;47660;51.334;12.396;2023-03-17T08:47:36;99991.94;;;17.07;29.35
54850;BME280;47660;51.334;12.396;2023-03-17T08:50:03;99997.88;;;16.63;29.81
54850;BME280;47660;51.334;12.396;2023-03-17T08:52:29;100000.66;;;14.83;31.23
54850;BME280;47660;51.334;12.396;2023-03-17T08:54:58;99990.50;;;16.08;30.15
54850;BME280;47660;51.334;12.396;2023-03-17T08:57:26;99987.13;;;16.06;30.08
54850;BME280;47660;51.334;12.396;2023-03-17T08:59:52;99987.66;;;16.29;29.81
54850;BME280;47660;51.334;12.396;2023-03-17T09:02:18;99983.59;;;15.96;30.10
54850;BME280;47660;51.334;12.396;2023-03-17T09:04:43;99980.06;;;15.95;30.25
54850;BME280;47660;51.334;12.396;2023-03-17T09:07:09;99973.59;;;15.88;30.44
54850;BME280;47660;51.334;12.396;2023-03-17T09:09:37;99977.34;;;15.66;30.59
54850;BME280;47660;51.334;12.396;2023-03-17T09:12:04;99983.59;;;15.96;29.97
54850;BME280;47660;51.334;12.396;2023-03-17T09:14:33;99985.00;;;15.90;29.87
54850;BME280;47660;51.334;12.396;2023-03-17T09:16:59;99976.50;;;18.02;28.13
54850;BME280;47660;51.334;12.396;2023-03-17T09:19:25;99975.38;;;16.17;29.48
54850;BME280;47660;51.334;12.396;2023-03-17T09:21:51;99979.28;;;16.52;31.63
54850;BME280;47660;51.334;12.396;2023-03-17T09:24:17;99982.47;;;16.75;29.49
54850;BME280;47660;51.334;12.396;2023-03-17T09:26:43;99986.44;;;16.71;31.02
54850;BME280;47660;51.334;12.396;2023-03-17T09:29:09;99977.91;;;16.76;28.97
54850;BME280;47660;51.334;12.396;2023-03-17T09:31:34;99975.94;;;16.78;29.29
54850;BME280;47660;51.334;12.396;2023-03-17T09:34:01;99975.22;;;18.93;27.59
54850;BME280;47660;51.334;12.396;2023-03-17T09:36:28;99977.50;;;18.01;28.64
54850;BME280;47660;51.334;12.396;2023-03-17T09:38:58;99970.69;;;17.42;28.43
54850;BME280;47660;51.334;12.396;2023-03-17T09:49:21;99968.88;;;18.41;27.57
54850;BME280;47660;51.334;12.396;2023-03-17T09:51:51;99953.13;;;19.16;27.06
54850;BME280;47660;51.334;12.396;2023-03-17T09:54:26;99961.69;;;18.24;27.48
54850;BME280;47660;51.334;12.396;2023-03-17T09:57:05;99962.59;;;17.06;29.12
54850;BME280;47660;51.334;12.396;2023-03-17T09:59:39;99961.34;;;18.80;26.98
54850;BME280;47660;51.334;12.396;2023-03-17T10:02:24;99962.09;;;19.41;27.29
54850;BME280;47660;51.334;12.396;2023-03-17T10:04:55;99959.97;;;19.02;27.31
54850;BME280;47660;51.334;12.396;2023-03-17T10:07:41;99953.25;;;19.82;26.99
54850;BME280;47660;51.334;12.396;2023-03-17T10:10:15;99950.78;;;19.21;26.87
54850;BME280;47660;51.334;12.396;2023-03-17T10:13:39;99946.22;;;19.13;26.95
54850;BME280;47660;51.334;12.396;2023-03-17T10:16:11;99939.44;;;20.18;26.47
54850;BME280;47660;51.334;12.396;2023-03-17T10:18:53;99939.56;;;19.75;26.85
54850;BME280;47660;51.334;12.396;2023-03-17T10:21:50;99941.97;;;18.68;27.67
54850;BME280;47660;51.334;12.396;2023-03-17T10:24:18;99936.38;;;19.72;26.78
54850;BME280;47660;51.334;12.396;2023-03-17T10:26:54;99939.41;;;20.35;26.23
54850;BME280;47660;51.334;12.396;2023-03-17T10:29:24;99925.44;;;19.73;26.89
54850;BME280;47660;51.334;12.396;2023-03-17T10:31:55;99921.91;;;21.19;25.72
54850;BME280;47660;51.334;12.396;2023-03-17T10:34:28;99929.06;;;21.66;25.77
54850;BME280;47660;51.334;12.396;2023-03-17T10:37:18;99929.84;;;20.08;26.59
54850;BME280;47660;51.334;12.396;2023-03-17T10:39:49;99919.72;;;19.68;27.73
54850;BME280;47660;51.334;12.396;2023-03-17T10:42:22;99915.34;;;21.13;26.40
54850;BME280;47660;51.334;12.396;2023-03-17T10:47:38;99916.31;;;21.20;26.44
54850;BME280;47660;51.334;12.396;2023-03-17T10:52:43;99901.81;;;21.68;25.51
54850;BME280;47660;51.334;12.396;2023-03-17T10:55:16;99888.78;;;21.72;26.55
54850;BME280;47660;51.334;12.396;2023-03-17T11:00:31;99880.03;;;20.83;26.37
54850;BME280;47660;51.334;12.396;2023-03-17T11:03:21;99893.66;;;20.50;26.54
54850;BME280;47660;51.334;12.396;2023-03-17T11:06:17;99879.28;;;20.58;26.83
54850;BME280;47660;51.334;12.396;2023-03-17T11:08:49;99876.88;;;21.34;26.35
54850;BME280;47660;51.334;12.396;2023-03-17T11:11:27;99868.63;;;23.09;24.77
54850;BME280;47660;51.334;12.396;2023-03-17T11:14:13;99867.09;;;21.33;26.35
54850;BME280;47660;51.334;12.396;2023-03-17T11:16:54;99862.81;;;21.39;25.97
54850;BME280;47660;51.334;12.396;2023-03-17T11:19:33;99866.53;;;20.83;25.61
54850;BME280;47660;51.334;12.396;2023-03-17T11:22:13;99854.75;;;21.31;25.37
54850;BME280;47660;51.334;12.396;2023-03-17T11:24:50;99859.97;;;20.29;26.63
54850;BME280;47660;51.334;12.396;2023-03-17T11:27:26;99851.13;;;20.52;26.46
54850;BME280;47660;51.334;12.396;2023-03-17T11:35:37;99836.31;;;21.96;25.33
54850;BME280;47660;51.334;12.396;2023-03-17T11:41:05;99838.56;;;22.07;24.73
54850;BME280;47660;51.334;12.396;2023-03-17T11:43:57;99836.03;;;22.06;24.60
54850;BME280;47660;51.334;12.396;2023-03-17T11:46:35;99841.72;;;22.26;24.96
54850;BME280;47660;51.334;12.396;2023-03-17T11:55:07;99831.97;;;20.30;26.23
54850;BME280;47660;51.334;12.396;2023-03-17T11:57:18;99824.91;;;21.71;25.92
54850;BME280;47660;51.334;12.396;2023-03-17T12:02:24;99826.19;;;21.13;25.83
54850;BME280;47660;51.334;12.396;2023-03-17T12:07:35;99831.50;;;21.45;25.60
54850;BME280;47660;51.334;12.396;2023-03-17T12:12:43;99828.19;;;21.96;24.76
54850;BME280;47660;51.334;12.396;2023-03-17T12:15:26;99830.31;;;21.24;25.87
54850;BME280;47660;51.334;12.396;2023-03-17T12:17:59;99832.91;;;21.41;25.51
54850;BME280;47660;51.334;12.396;2023-03-17T12:23:27;99810.06;;;23.30;23.90
54850;BME280;47660;51.334;12.396;2023-03-17T12:26:18;99808.88;;;23.18;23.96
54850;BME280;47660;51.334;12.396;2023-03-17T12:28:49;99808.66;;;24.20;23.27
54850;BME280;47660;51.334;12.396;2023-03-17T12:31:35;99803.25;;;21.71;25.52
54850;BME280;47660;51.334;12.396;2023-03-17T12:36:29;99788.88;;;23.69;24.21
54850;BME280;47660;51.334;12.396;2023-03-17T12:38:59;99788.72;;;22.17;24.80
54850;BME280;47660;51.334;12.396;2023-03-17T12:44:46;99788.81;;;21.78;25.30
54850;BME280;47660;51.334;12.396;2023-03-17T12:50:26;99792.56;;;21.54;25.10
54850;BME280;47660;51.334;12.396;2023-03-17T12:55:51;99791.16;;;23.37;24.11
54850;BME280;47660;51.334;12.396;2023-03-17T12:58:24;99796.63;;;23.72;23.86
54850;BME280;47660;51.334;12.396;2023-03-17T13:01:05;99792.72;;;23.53;23.52
54850;BME280;47660;51.334;12.396;2023-03-17T13:03:33;99792.34;;;23.56;23.90
54850;BME280;47660;51.334;12.396;2023-03-17T13:06:04;99791.78;;;23.96;23.76
54850;BME280;47660;51.334;12.396;2023-03-17T13:08:51;99782.66;;;24.03;23.26
54850;BME280;47660;51.334;12.396;2023-03-17T13:14:42;99769.44;;;24.29;23.09
54850;BME280;47660;51.334;12.396;2023-03-17T13:27:51;99755.84;;;23.30;23.05
54850;BME280;47660;51.334;12.396;2023-03-17T13:41:36;99746.47;;;23.33;23.34
54850;BME280;47660;51.334;12.396;2023-03-17T13:44:28;99748.28;;;22.82;24.07
54850;BME280;47660;51.334;12.396;2023-03-17T13:49:49;99750.84;;;23.91;23.59
54850;BME280;47660;51.334;12.396;2023-03-17T13:52:55;99737.56;;;22.74;27.26
54850;BME280;47660;51.334;12.396;2023-03-17T13:57:54;99742.41;;;22.78;27.66
54850;BME280;47660;51.334;12.396;2023-03-17T14:00:25;99739.16;;;22.90;28.05
54850;BME280;47660;51.334;12.396;2023-03-17T14:03:00;99734.34;;;22.11;28.67
54850;BME280;47660;51.334;12.396;2023-03-17T14:05:28;99743.84;;;22.22;28.67
54850;BME280;47660;51.334;12.396;2023-03-17T14:07:58;99728.75;;;21.83;28.48
54850;BME280;47660;51.334;12.396;2023-03-17T14:10:28;99722.97;;;23.40;27.00
54850;BME280;47660;51.334;12.396;2023-03-17T14:13:06;99731.25;;;22.15;28.63
54850;BME280;47660;51.334;12.396;2023-03-17T14:15:41;99726.06;;;22.50;28.10
54850;BME280;47660;51.334;12.396;2023-03-17T14:20:56;99722.28;;;22.88;27.86
54850;BME280;47660;51.334;12.396;2023-03-17T14:23:23;99724.84;;;22.37;28.07
54850;BME280;47660;51.334;12.396;2023-03-17T14:25:58;99710.69;;;22.20;28.57
54850;BME280;47660;51.334;12.396;2023-03-17T14:28:29;99700.84;;;22.34;28.18